createdAt,value
2019-01-15T00:01:11.327Z,6.90
2019-01-15T00:03:46.441Z,6.90
2019-01-15T00:06:21.648Z,6.90
2019-01-15T00:08:56.759Z,6.90
2019-01-15T00:11:31.973Z,7.00
2019-01-15T00:14:07.420Z,7.00
2019-01-15T00:16:42.580Z,7.00
2019-01-15T00:19:17.765Z,7.00
2019-01-15T00:21:52.986Z,7.00
2019-01-15T00:24:28.181Z,7.00
2019-01-15T00:27:03.463Z,7.00
2019-01-15T00:29:38.716Z,7.00
2019-01-15T00:32:13.869Z,7.00
2019-01-15T00:34:49.052Z,7.00
2019-01-15T00:37:24.265Z,7.00
2019-01-15T00:39:59.457Z,7.00
2019-01-15T00:42:34.689Z,7.00
2019-01-15T00:45:10.276Z,7.00
2019-01-15T00:47:45.428Z,7.00
2019-01-15T00:50:20.608Z,7.00
2019-01-15T00:52:55.809Z,7.00
2019-01-15T00:55:31.021Z,7.00
2019-01-15T00:58:06.203Z,7.00
2019-01-15T01:00:41.405Z,7.00
2019-01-15T01:03:16.633Z,7.00
2019-01-15T01:05:51.751Z,7.00
2019-01-15T01:08:26.960Z,7.00
2019-01-15T01:11:02.368Z,7.00
2019-01-15T01:13:37.640Z,7.00
2019-01-15T01:16:12.748Z,7.00
2019-01-15T01:18:48.028Z,7.00
2019-01-15T01:21:23.210Z,7.00
2019-01-15T01:23:58.333Z,7.00
2019-01-15T01:26:33.447Z,7.00
2019-01-15T01:29:08.659Z,7.00
2019-01-15T01:31:43.855Z,7.00
2019-01-15T01:34:19.148Z,7.10
2019-01-15T01:36:54.338Z,7.10
2019-01-15T01:39:29.516Z,7.10
2019-01-15T01:42:04.832Z,7.10
2019-01-15T01:44:40.061Z,7.00
2019-01-15T01:47:15.243Z,7.10
2019-01-15T01:49:50.412Z,7.00
2019-01-15T01:52:25.659Z,7.00
2019-01-15T01:55:00.860Z,7.10
2019-01-15T01:57:36.056Z,7.10
2019-01-15T02:00:19.824Z,7.10
2019-01-15T02:02:55.016Z,7.10
2019-01-15T02:05:30.241Z,7.10
2019-01-15T02:08:05.531Z,7.10
2019-01-15T02:10:40.741Z,7.10
2019-01-15T02:13:16.011Z,7.10
2019-01-15T02:15:51.311Z,7.10
2019-01-15T02:18:26.564Z,7.10
2019-01-15T02:21:01.708Z,7.10
2019-01-15T02:23:36.816Z,7.10
2019-01-15T02:26:12.022Z,7.10
2019-01-15T02:28:47.128Z,7.10
2019-01-15T02:31:22.263Z,7.20
2019-01-15T02:33:57.448Z,7.10
2019-01-15T02:36:32.656Z,7.20
2019-01-15T02:39:08.397Z,7.20
2019-01-15T02:41:43.605Z,7.20
2019-01-15T02:44:18.797Z,7.20
2019-01-15T02:46:54.036Z,7.20
2019-01-15T02:49:29.156Z,7.20
2019-01-15T02:52:04.441Z,7.20
2019-01-15T02:54:39.567Z,7.20
2019-01-15T02:57:14.805Z,7.20
2019-01-15T02:59:49.991Z,7.30
2019-01-15T03:02:25.155Z,7.30
2019-01-15T03:05:00.337Z,7.30
2019-01-15T03:07:35.548Z,7.30
2019-01-15T03:10:12.064Z,7.20
2019-01-15T03:12:55.382Z,7.20
2019-01-15T03:15:27.279Z,7.20
2019-01-15T03:18:02.549Z,7.20
2019-01-15T03:20:37.656Z,7.20
2019-01-15T03:23:12.875Z,7.30
2019-01-15T03:25:48.127Z,7.30
2019-01-15T03:28:23.288Z,7.20
2019-01-15T03:30:58.526Z,7.20
2019-01-15T03:33:33.744Z,7.20
2019-01-15T03:36:09.006Z,7.20
2019-01-15T03:38:44.223Z,7.20
2019-01-15T03:41:19.328Z,7.10
2019-01-15T03:43:54.473Z,7.10
2019-01-15T03:46:29.644Z,7.10
2019-01-15T03:49:04.934Z,7.10
2019-01-15T03:51:40.120Z,7.20
2019-01-15T03:54:15.324Z,7.20
2019-01-15T03:56:50.432Z,7.20
2019-01-15T03:59:25.640Z,7.20
2019-01-15T04:02:00.758Z,7.20
2019-01-15T04:04:36.381Z,7.20
2019-01-15T04:07:12.253Z,7.20
2019-01-15T04:09:48.254Z,7.20
2019-01-15T04:12:23.442Z,7.30
2019-01-15T04:14:58.644Z,7.30
2019-01-15T04:17:33.837Z,7.30
2019-01-15T04:20:11.583Z,7.30
2019-01-15T04:22:46.704Z,7.30
2019-01-15T04:25:22.017Z,7.40
2019-01-15T04:27:57.129Z,7.40
2019-01-15T04:30:32.336Z,7.40
2019-01-15T04:33:07.458Z,7.40
2019-01-15T04:35:42.660Z,7.40
2019-01-15T04:38:17.777Z,7.50
2019-01-15T04:40:52.928Z,7.50
2019-01-15T04:43:28.106Z,7.50
2019-01-15T04:46:03.232Z,7.30
2019-01-15T04:48:38.441Z,7.40
2019-01-15T04:51:13.709Z,7.50
2019-01-15T04:53:48.823Z,7.50
2019-01-15T04:56:23.984Z,7.60
2019-01-15T04:58:59.092Z,7.60
2019-01-15T05:01:34.234Z,7.60
2019-01-15T05:04:09.489Z,7.60
2019-01-15T05:06:44.635Z,7.60
2019-01-15T05:09:19.809Z,7.60
2019-01-15T05:11:54.958Z,7.60
2019-01-15T05:14:30.216Z,7.60
2019-01-15T05:17:05.433Z,7.60
2019-01-15T05:19:40.620Z,7.50
2019-01-15T05:22:15.828Z,7.50
2019-01-15T05:24:50.958Z,7.50
2019-01-15T05:27:26.353Z,7.50
2019-01-15T05:30:01.619Z,7.50
2019-01-15T05:32:36.900Z,7.50
2019-01-15T05:35:13.122Z,7.50
2019-01-15T05:37:48.528Z,7.50
2019-01-15T05:40:23.722Z,7.50
2019-01-15T05:42:58.936Z,7.50
2019-01-15T05:45:36.404Z,7.50
2019-01-15T05:48:19.541Z,7.50
2019-01-15T05:51:12.407Z,7.60
2019-01-15T05:53:47.721Z,7.60
2019-01-15T05:56:22.909Z,7.60
2019-01-15T05:58:58.198Z,7.50
2019-01-15T06:01:33.454Z,7.60
2019-01-15T06:04:08.797Z,7.60
2019-01-15T06:06:43.915Z,7.60
2019-01-15T06:09:19.154Z,7.60
2019-01-15T06:11:54.282Z,7.60
2019-01-15T06:14:29.501Z,7.70
2019-01-15T06:17:04.928Z,7.70
2019-01-15T06:19:40.119Z,7.70
2019-01-15T06:22:15.239Z,7.70
2019-01-15T06:24:50.441Z,7.70
2019-01-15T06:27:25.564Z,7.70
2019-01-15T06:30:00.858Z,7.70
2019-01-15T06:32:36.054Z,7.70
2019-01-15T06:35:11.295Z,7.70
2019-01-15T06:37:46.492Z,7.70
2019-01-15T06:40:21.910Z,7.70
2019-01-15T06:42:57.121Z,7.80
2019-01-15T06:45:32.400Z,7.80
2019-01-15T06:48:07.694Z,7.80
2019-01-15T06:50:42.977Z,7.80
2019-01-15T06:53:18.177Z,7.80
2019-01-15T06:55:53.349Z,7.80
2019-01-15T06:58:28.545Z,7.80
2019-01-15T07:01:03.888Z,7.80
2019-01-15T07:03:39.109Z,7.80
2019-01-15T07:06:14.270Z,7.80
2019-01-15T07:08:49.451Z,7.80
2019-01-15T07:11:24.647Z,7.80
2019-01-15T07:13:59.841Z,7.80
2019-01-15T07:16:35.350Z,7.80
2019-01-15T07:19:10.607Z,7.80
2019-01-15T07:21:46.104Z,7.80
2019-01-15T07:24:21.360Z,7.80
2019-01-15T07:26:56.497Z,7.80
2019-01-15T07:29:31.865Z,7.80
2019-01-15T07:32:07.097Z,7.90
2019-01-15T07:34:42.272Z,7.90
2019-01-15T07:37:17.406Z,7.90
2019-01-15T07:39:52.694Z,7.90
2019-01-15T07:42:27.888Z,7.90
2019-01-15T07:45:03.072Z,7.90
2019-01-15T07:47:38.437Z,7.90
2019-01-15T07:50:15.788Z,7.90
2019-01-15T07:52:51.117Z,8.00
2019-01-15T07:55:26.228Z,8.00
2019-01-15T07:58:01.409Z,8.00
2019-01-15T08:00:36.669Z,7.90
2019-01-15T08:03:11.901Z,8.00
2019-01-15T08:05:47.032Z,7.90
2019-01-15T08:08:22.232Z,8.00
2019-01-15T08:10:57.410Z,8.00
2019-01-15T08:13:32.541Z,8.00
2019-01-15T08:16:07.661Z,8.00
2019-01-15T08:18:42.860Z,8.00
2019-01-15T08:21:18.058Z,8.00
2019-01-15T08:23:53.249Z,8.10
2019-01-15T08:26:28.374Z,8.10
2019-01-15T08:29:03.509Z,8.10
2019-01-15T08:31:38.697Z,8.10
2019-01-15T08:34:13.972Z,8.10
2019-01-15T08:36:49.099Z,8.10
2019-01-15T08:39:24.303Z,8.10
2019-01-15T08:41:59.428Z,8.20
2019-01-15T08:44:34.725Z,8.20
2019-01-15T08:47:09.918Z,8.20
2019-01-15T08:49:45.060Z,8.20
2019-01-15T08:52:20.276Z,8.20
2019-01-15T08:54:55.441Z,8.20
2019-01-15T08:57:30.645Z,8.20
2019-01-15T09:00:06.545Z,8.20
2019-01-15T09:02:41.739Z,8.20
2019-01-15T09:05:16.908Z,8.20
2019-01-15T09:07:52.127Z,8.20
2019-01-15T09:10:27.363Z,8.20
2019-01-15T09:13:02.501Z,8.30
2019-01-15T09:15:37.723Z,8.20
2019-01-15T09:18:13.011Z,8.20
2019-01-15T09:20:48.317Z,8.20
2019-01-15T09:23:23.440Z,8.20
2019-01-15T09:25:58.736Z,8.20
2019-01-15T09:28:33.930Z,8.30
2019-01-15T09:31:09.240Z,8.30
2019-01-15T09:33:44.483Z,8.30
2019-01-15T09:36:19.813Z,8.30
2019-01-15T09:38:54.997Z,8.30
2019-01-15T09:41:30.247Z,8.30
2019-01-15T09:44:05.846Z,8.30
2019-01-15T09:46:41.256Z,8.30
2019-01-15T09:49:16.582Z,8.30
2019-01-15T09:51:52.087Z,8.30
2019-01-15T09:54:27.687Z,8.30
2019-01-15T09:57:03.476Z,8.30
2019-01-15T09:59:39.561Z,8.30
2019-01-15T10:02:16.050Z,8.40
2019-01-15T10:04:53.237Z,8.40
2019-01-15T10:07:34.309Z,8.40
2019-01-15T10:10:14.160Z,8.40
2019-01-15T10:12:55.997Z,8.40
2019-01-15T10:15:37.095Z,8.40
2019-01-15T10:18:17.421Z,8.40
2019-01-15T10:20:58.249Z,8.50
2019-01-15T10:23:39.764Z,8.50
2019-01-15T10:26:20.607Z,8.50
2019-01-15T10:29:03.837Z,8.50
2019-01-15T10:32:32.236Z,8.60
2019-01-15T10:35:18.825Z,8.60
2019-01-15T10:38:00.237Z,8.60
2019-01-15T10:40:41.384Z,8.60
2019-01-15T10:43:22.650Z,8.70
2019-01-15T10:46:04.451Z,8.70
2019-01-15T10:48:45.928Z,8.70
2019-01-15T10:51:26.217Z,8.70
2019-01-15T10:54:07.186Z,8.80
2019-01-15T10:56:48.692Z,8.80
2019-01-15T10:59:28.847Z,8.80
2019-01-15T11:02:07.408Z,8.80
2019-01-15T11:04:47.543Z,8.90
2019-01-15T11:07:28.347Z,8.90
2019-01-15T11:10:08.010Z,8.90
2019-01-15T11:12:45.452Z,8.90
2019-01-15T11:15:21.301Z,8.90
2019-01-15T11:17:57.019Z,8.90
2019-01-15T11:20:32.529Z,9.00
2019-01-15T11:23:09.162Z,9.00
2019-01-15T11:25:44.457Z,9.00
2019-01-15T11:28:19.755Z,9.10
2019-01-15T11:30:55.147Z,9.10
2019-01-15T11:33:30.459Z,9.10
2019-01-15T11:36:05.852Z,9.20
2019-01-15T11:38:41.120Z,9.20
2019-01-15T11:41:16.580Z,9.20
2019-01-15T11:43:51.943Z,9.20
2019-01-15T11:46:27.315Z,9.20
2019-01-15T11:49:02.548Z,9.20
2019-01-15T11:51:37.931Z,9.20
2019-01-15T11:54:13.247Z,9.30
2019-01-15T11:56:48.544Z,9.30
2019-01-15T11:59:24.302Z,9.30
2019-01-15T12:02:22.187Z,9.20
2019-01-15T12:05:17.500Z,9.30
2019-01-15T12:08:11.813Z,9.30
2019-01-15T12:11:09.037Z,9.20
2019-01-15T12:14:02.320Z,9.20
2019-01-15T12:16:59.780Z,9.20
2019-01-15T12:19:55.839Z,9.20
2019-01-15T12:22:53.104Z,9.20
2019-01-15T12:25:45.324Z,9.20
2019-01-15T12:28:42.668Z,9.20
2019-01-15T12:31:31.641Z,9.20
2019-01-15T12:34:24.701Z,9.20
2019-01-15T12:37:17.654Z,9.20
2019-01-15T12:40:24.004Z,9.20
2019-01-15T12:43:30.272Z,9.30
2019-01-15T12:46:20.808Z,9.30
2019-01-15T12:49:17.901Z,9.30
2019-01-15T12:52:15.067Z,9.30
2019-01-15T12:55:07.642Z,9.40
2019-01-15T12:58:17.219Z,9.40
2019-01-15T13:01:08.853Z,9.40
2019-01-15T13:03:54.791Z,9.40
2019-01-15T13:07:07.040Z,9.50
2019-01-15T13:10:01.608Z,9.50
2019-01-15T13:12:55.713Z,9.50
2019-01-15T13:15:52.860Z,9.50
2019-01-15T13:18:45.540Z,9.50
2019-01-15T13:21:55.066Z,9.60
2019-01-15T13:24:49.166Z,9.60
2019-01-15T13:27:49.553Z,9.70
2019-01-15T13:30:46.664Z,9.70
2019-01-15T13:33:43.720Z,9.70
2019-01-15T13:36:43.981Z,9.70
2019-01-15T13:39:41.200Z,9.80
2019-01-15T13:42:38.426Z,9.80
2019-01-15T13:45:41.728Z,9.90
2019-01-15T13:48:38.577Z,9.90
2019-01-15T13:51:31.596Z,9.90
2019-01-15T13:54:32.660Z,9.90
2019-01-15T13:57:31.159Z,9.90
2019-01-15T14:00:26.204Z,9.90
2019-01-15T14:03:19.194Z,9.90
2019-01-15T14:06:28.772Z,9.90
2019-01-15T14:09:39.484Z,9.80
2019-01-15T14:12:34.515Z,9.80
2019-01-15T14:15:34.845Z,9.80
2019-01-15T14:18:29.017Z,9.80
2019-01-15T14:21:28.044Z,9.80
2019-01-15T14:24:25.175Z,9.80
2019-01-15T14:27:18.100Z,9.80
2019-01-15T14:30:21.508Z,9.80
2019-01-15T14:33:14.363Z,9.70
2019-01-15T14:36:05.893Z,9.80
2019-01-15T14:39:06.120Z,9.70
2019-01-15T14:41:59.116Z,9.70
2019-01-15T14:44:59.377Z,9.60
2019-01-15T14:47:59.749Z,9.70
2019-01-15T14:50:42.860Z,9.70
2019-01-15T14:53:30.574Z,9.70
2019-01-15T14:56:25.501Z,9.70
2019-01-15T14:59:38.394Z,9.70
2019-01-15T15:02:31.399Z,9.70
2019-01-15T15:05:37.756Z,9.70
2019-01-15T15:08:31.893Z,9.70
2019-01-15T15:11:28.879Z,9.60
2019-01-15T15:14:29.129Z,9.70
2019-01-15T15:17:35.474Z,9.70
2019-01-15T15:20:36.529Z,9.60
2019-01-15T15:23:30.556Z,9.60
2019-01-15T15:26:23.607Z,9.60
2019-01-15T15:29:15.140Z,9.60
2019-01-15T15:32:07.507Z,9.60
2019-01-15T15:35:00.264Z,9.60
2019-01-15T15:37:45.413Z,9.60
2019-01-15T15:40:38.408Z,9.60
2019-01-15T15:43:45.147Z,9.60
2019-01-15T15:46:48.504Z,9.60
2019-01-15T15:49:33.310Z,9.50
2019-01-15T15:52:27.556Z,9.50
2019-01-15T15:55:21.700Z,9.50
2019-01-15T15:58:04.259Z,9.50
2019-01-15T16:01:01.328Z,9.60
2019-01-15T16:03:54.212Z,9.60
2019-01-15T16:06:57.678Z,9.60
2019-01-15T16:10:07.138Z,9.60
2019-01-15T16:12:54.448Z,9.60
2019-01-15T16:15:57.664Z,9.60
2019-01-15T16:18:50.534Z,9.50
2019-01-15T16:21:50.521Z,9.50
2019-01-15T16:24:59.925Z,9.50
2019-01-15T16:27:52.609Z,9.50
2019-01-15T16:30:49.856Z,9.50
2019-01-15T16:33:47.045Z,9.50
2019-01-15T16:36:44.205Z,9.50
2019-01-15T16:39:37.312Z,9.50
2019-01-15T16:42:34.608Z,9.50
2019-01-15T16:45:29.799Z,9.50
2019-01-15T16:48:16.783Z,9.50
2019-01-15T16:51:10.807Z,9.60
2019-01-15T16:54:13.976Z,9.60
2019-01-15T16:57:13.651Z,9.60
2019-01-15T17:00:26.141Z,9.70
2019-01-15T17:03:12.768Z,9.70
2019-01-15T17:06:09.699Z,9.70
2019-01-15T17:09:02.797Z,9.70
2019-01-15T17:11:56.984Z,9.70
2019-01-15T17:15:06.453Z,9.70
2019-01-15T17:17:48.625Z,9.70
2019-01-15T17:20:41.585Z,9.70
2019-01-15T17:23:35.096Z,9.70
2019-01-15T17:26:38.513Z,9.70
2019-01-15T17:29:25.756Z,9.70
2019-01-15T17:32:26.093Z,9.60
2019-01-15T17:35:29.506Z,9.60
2019-01-15T17:38:22.655Z,9.60
2019-01-15T17:41:16.804Z,9.60
2019-01-15T17:44:09.680Z,9.60
2019-01-15T17:47:03.727Z,9.60
2019-01-15T17:49:59.044Z,9.60
2019-01-15T17:53:08.597Z,9.60
2019-01-15T17:56:01.704Z,9.60
2019-01-15T17:59:01.800Z,9.60
2019-01-15T18:02:11.072Z,9.60
2019-01-15T18:05:04.287Z,9.60
2019-01-15T18:07:56.980Z,9.50
2019-01-15T18:10:53.909Z,9.60
2019-01-15T18:13:48.012Z,9.60
2019-01-15T18:17:00.422Z,9.60
2019-01-15T18:20:13.270Z,9.60
2019-01-15T18:23:22.686Z,9.60
2019-01-15T18:26:16.884Z,9.60
2019-01-15T18:29:11.080Z,9.60
2019-01-15T18:32:05.236Z,9.70
2019-01-15T18:34:58.037Z,9.70
2019-01-15T18:37:39.909Z,9.70
2019-01-15T18:40:32.926Z,9.70
2019-01-15T18:43:29.990Z,9.70
2019-01-15T18:46:27.257Z,9.70
2019-01-15T18:49:30.656Z,9.70
2019-01-15T18:52:24.797Z,9.70
2019-01-15T18:55:31.316Z,9.70
2019-01-15T18:58:15.774Z,9.70
2019-01-15T19:01:25.316Z,9.70
2019-01-15T19:04:20.430Z,9.70
2019-01-15T19:07:32.744Z,9.70
2019-01-15T19:10:33.761Z,9.70
2019-01-15T19:13:40.256Z,9.60
2019-01-15T19:16:37.998Z,9.70
2019-01-15T19:19:27.152Z,9.70
2019-01-15T19:22:21.486Z,9.60
2019-01-15T19:25:24.964Z,9.70
2019-01-15T19:28:14.529Z,9.70
2019-01-15T19:31:08.578Z,9.60
2019-01-15T19:33:59.448Z,9.70
2019-01-15T19:37:05.868Z,9.70
2019-01-15T19:40:01.243Z,9.70
2019-01-15T19:43:04.784Z,9.70
2019-01-15T19:46:10.793Z,9.70
2019-01-15T19:49:03.810Z,9.70
2019-01-15T19:51:56.045Z,9.80
2019-01-15T19:54:48.920Z,9.80
2019-01-15T19:57:52.104Z,9.70
2019-01-15T20:00:49.178Z,9.70
2019-01-15T20:03:49.298Z,9.70
2019-01-15T20:06:55.565Z,9.70
2019-01-15T20:09:47.975Z,9.70
2019-01-15T20:12:48.163Z,9.70
2019-01-15T20:15:43.502Z,9.70
2019-01-15T20:18:40.712Z,9.80
2019-01-15T20:21:50.166Z,9.80
2019-01-15T20:24:47.316Z,9.80
2019-01-15T20:27:41.372Z,9.80
2019-01-15T20:30:44.803Z,9.80
2019-01-15T20:33:37.772Z,9.90
2019-01-15T20:36:44.227Z,9.90
2019-01-15T20:39:38.296Z,9.80
2019-01-15T20:42:38.737Z,9.80
2019-01-15T20:45:28.951Z,9.80
2019-01-15T20:48:38.396Z,9.80
2019-01-15T20:51:29.089Z,9.80
2019-01-15T20:54:12.765Z,9.80
2019-01-15T20:57:12.813Z,9.80
2019-01-15T21:00:06.924Z,9.80
2019-01-15T21:02:59.934Z,9.80
2019-01-15T21:05:54.120Z,9.90
2019-01-15T21:08:57.490Z,9.90
2019-01-15T21:11:50.420Z,9.90
2019-01-15T21:14:56.967Z,9.90
2019-01-15T21:17:50.533Z,9.90
2019-01-15T21:20:53.742Z,9.90
2019-01-15T21:23:54.041Z,9.90
2019-01-15T21:26:47.097Z,9.90
2019-01-15T21:29:40.145Z,9.90
2019-01-15T21:32:34.308Z,10.00
2019-01-15T21:35:33.047Z,10.00
2019-01-15T21:38:19.273Z,10.00
2019-01-15T21:41:03.482Z,10.00
2019-01-15T21:44:00.730Z,10.00
2019-01-15T21:46:54.774Z,10.00
2019-01-15T21:49:51.840Z,10.10
2019-01-15T21:53:01.257Z,10.10
2019-01-15T21:56:01.456Z,10.10
2019-01-15T21:59:01.845Z,10.20
2019-01-15T22:02:02.041Z,10.20
2019-01-15T22:04:56.087Z,10.20
2019-01-15T22:07:44.819Z,10.20
2019-01-15T22:10:40.748Z,10.20
2019-01-15T22:13:40.808Z,10.20
2019-01-15T22:16:31.148Z,10.20
2019-01-15T22:19:28.257Z,10.20
2019-01-15T22:22:29.545Z,10.30
2019-01-15T22:25:28.570Z,10.30
2019-01-15T22:28:21.603Z,10.30
2019-01-15T22:31:14.661Z,10.30
2019-01-15T22:34:14.749Z,10.30
2019-01-15T22:37:06.623Z,10.20
2019-01-15T22:40:03.781Z,10.20
2019-01-15T22:42:56.731Z,10.20
2019-01-15T22:45:53.692Z,10.20
2019-01-15T22:48:40.888Z,10.20
2019-01-15T22:51:33.977Z,10.30
2019-01-15T22:54:43.590Z,10.30
2019-01-15T22:57:46.898Z,10.20
2019-01-15T23:01:04.209Z,10.20
2019-01-15T23:03:58.350Z,10.20
2019-01-15T23:06:52.484Z,10.20
2019-01-15T23:09:44.497Z,10.20
2019-01-15T23:12:41.599Z,10.30
2019-01-15T23:15:41.936Z,10.30
2019-01-15T23:18:35.204Z,10.30
2019-01-15T23:21:41.549Z,10.40
2019-01-15T23:24:44.952Z,10.40
2019-01-15T23:27:39.013Z,10.30
2019-01-15T23:30:30.007Z,10.30
2019-01-15T23:33:39.608Z,10.40
2019-01-15T23:36:32.805Z,10.30
2019-01-15T23:39:21.636Z,10.40
2019-01-15T23:42:14.656Z,10.30
2019-01-15T23:45:07.682Z,10.30
2019-01-15T23:48:11.129Z,10.30
2019-01-15T23:51:05.947Z,10.30
2019-01-15T23:54:18.745Z,10.30
2019-01-15T23:57:24.489Z,10.30
